Time;durP1;ratioP1;P1;durP2;ratioP2;P2;SDS_P1;SDS_P2;PMS_P1;PMS_P2;Temp;Humidity;BMP_temperature;BMP_pressure;BME280_temperature;BME280_humidity;BME280_pressure;Samples;Min_cycle;Max_cycle;Signal;HPM_P1;HPM_P2
2020/12/19 00:02:40;;;;;;;272.88;74.80;;;;;;;-0.21;100.00;95839.81;10534432;28;20035;-76
2020/12/19 00:07:40;;;;;;;273.83;78.57;;;;;;;-0.15;100.00;95845.38;10533905;28;20040;-76
2020/12/19 00:12:45;;;;;;;255.37;81.40;;;;;;;-0.10;100.00;95837.72;10530370;28;20028;-76
2020/12/19 00:17:46;;;;;;;273.40;83.45;;;;;;;-0.03;100.00;95842.13;10491430;28;20051;-76
2020/12/19 00:22:46;;;;;;;241.63;80.97;;;;;;;-0.10;100.00;95838.53;10491241;28;20032;-77
2020/12/19 00:27:46;;;;;;;268.52;85.68;;;;;;;-0.04;100.00;95840.50;10491732;28;20287;-76
2020/12/19 00:32:47;;;;;;;295.27;87.55;;;;;;;-0.05;100.00;95841.47;10491969;28;20032;-77
2020/12/19 00:37:47;;;;;;;288.07;86.60;;;;;;;0.00;100.00;95840.97;10490749;28;20086;-77
2020/12/19 00:42:47;;;;;;;379.00;86.88;;;;;;;-0.11;100.00;95850.13;10473510;28;20138;-77
2020/12/19 00:47:48;;;;;;;305.40;86.40;;;;;;;-0.23;100.00;95849.72;10491476;28;20024;-77
2020/12/19 00:52:48;;;;;;;317.10;80.47;;;;;;;-0.25;100.00;95851.75;10491491;28;21259;-76
2020/12/19 00:57:49;;;;;;;283.70;67.40;;;;;;;-0.13;100.00;95860.03;10490649;28;20313;-77
2020/12/19 01:02:49;;;;;;;324.73;69.23;;;;;;;0.02;100.00;95857.44;10490724;28;20024;-77
2020/12/19 01:07:49;;;;;;;283.63;66.43;;;;;;;0.10;100.00;95841.50;10489974;28;20830;-77
2020/12/19 01:12:50;;;;;;;294.73;69.40;;;;;;;0.17;100.00;95839.78;10489755;28;20100;-77
2020/12/19 01:17:50;;;;;;;249.30;66.97;;;;;;;0.20;100.00;95835.16;10472131;28;20872;-78
2020/12/19 01:22:50;;;;;;;204.03;59.97;;;;;;;0.34;100.00;95835.16;10490326;28;20405;-77
2020/12/19 01:27:51;;;;;;;261.93;65.73;;;;;;;0.44;100.00;95826.13;10489571;28;20282;-78
2020/12/19 01:32:51;;;;;;;195.55;58.92;;;;;;;0.50;100.00;95822.75;10471839;28;20322;-77
2020/12/19 01:37:52;;;;;;;172.50;56.50;;;;;;;0.58;100.00;95812.06;10490068;28;20387;-77
2020/12/19 01:42:52;;;;;;;162.90;58.85;;;;;;;0.60;100.00;95812.72;10489210;28;20328;-77
2020/12/19 01:47:54;;;;;;;158.98;58.63;;;;;;;0.61;100.00;95809.06;10488045;28;20119;-77
2020/12/19 01:52:55;;;;;;;168.18;58.72;;;;;;;0.47;100.00;95818.63;10488629;28;20036;-77
2020/12/19 01:57:55;;;;;;;185.50;64.35;;;;;;;0.30;100.00;95823.28;10488324;28;20042;-77
2020/12/19 02:02:56;;;;;;;163.50;63.65;;;;;;;0.35;100.00;95820.13;10487947;28;20086;-77
2020/12/19 02:07:56;;;;;;;151.53;66.03;;;;;;;0.37;100.00;95819.94;10488376;28;20112;-77
2020/12/19 02:12:57;;;;;;;134.80;55.92;;;;;;;0.58;100.00;95825.31;10488037;28;20324;-77
2020/12/19 02:17:57;;;;;;;140.23;57.70;;;;;;;0.58;100.00;95827.94;10487838;28;20044;-77
2020/12/19 02:23:00;;;;;;;123.47;51.53;;;;;;;0.66;100.00;95817.28;10488130;28;20282;-77
2020/12/19 02:28:03;;;;;;;127.63;53.35;;;;;;;0.66;100.00;95811.97;10487850;28;20662;-77
2020/12/19 02:33:04;;;;;;;111.03;47.95;;;;;;;0.76;100.00;95811.69;10487853;28;20036;-77
2020/12/19 02:38:04;;;;;;;123.85;53.15;;;;;;;0.47;100.00;95808.06;10491692;28;20036;-77
2020/12/19 02:43:05;;;;;;;123.13;48.80;;;;;;;0.63;100.00;95811.53;10500599;28;20032;-75
2020/12/19 02:48:05;;;;;;;105.87;41.63;;;;;;;0.73;100.00;95803.31;10501636;28;20282;-76
2020/12/19 02:53:06;;;;;;;109.15;47.67;;;;;;;0.80;100.00;95804.22;10501237;28;20345;-76
2020/12/19 02:58:06;;;;;;;115.40;44.93;;;;;;;0.83;100.00;95803.84;10483402;28;20036;-76
2020/12/19 03:03:06;;;;;;;109.00;45.67;;;;;;;0.83;100.00;95803.84;10485062;28;20286;-76
2020/12/19 03:08:07;;;;;;;99.80;40.90;;;;;;;0.80;100.00;95802.38;10501278;28;20292;-76
2020/12/19 03:13:07;;;;;;;99.97;39.93;;;;;;;0.75;100.00;95803.94;10500827;28;20086;-77
2020/12/19 03:18:07;;;;;;;95.60;33.17;;;;;;;0.73;100.00;95803.31;10500095;28;20306;-77
2020/12/19 03:23:08;;;;;;;94.72;34.03;;;;;;;0.70;100.00;95807.16;10500864;28;20805;-77
2020/12/19 03:28:08;;;;;;;105.25;30.88;;;;;;;0.70;100.00;95807.16;10500552;28;20033;-77
2020/12/19 03:33:09;;;;;;;100.68;27.60;;;;;;;0.70;100.00;95808.97;10500005;28;20033;-77
2020/12/19 03:38:09;;;;;;;68.32;22.60;;;;;;;0.55;100.00;95809.00;10482944;28;20518;-77
2020/12/19 03:43:10;;;;;;;60.38;22.23;;;;;;;0.51;100.00;95808.53;10500813;28;20035;-77
2020/12/19 03:48:11;;;;;;;57.00;22.00;;;;;;;0.54;100.00;95813.44;10500076;28;20886;-77
2020/12/19 03:53:11;;;;;;;64.00;21.53;;;;;;;0.39;100.00;95810.81;10493479;28;20174;-76
2020/12/19 03:58:12;;;;;;;60.97;21.80;;;;;;;0.35;100.00;95806.91;10493644;28;20294;-77
2020/12/19 04:03:13;;;;;;;76.10;22.50;;;;;;;0.36;100.00;95810.34;10508787;28;20798;-77
2020/12/19 04:08:13;;;;;;;58.40;21.70;;;;;;;0.36;100.00;95811.16;10474887;28;20040;-77
2020/12/19 04:13:13;;;;;;;58.97;22.90;;;;;;;0.44;100.00;95816.38;10492625;28;20036;-77
2020/12/19 04:18:14;;;;;;;66.10;22.38;;;;;;;0.48;100.00;95816.84;10491902;28;20080;-77
2020/12/19 04:23:14;;;;;;;54.25;20.90;;;;;;;0.54;100.00;95820.56;10492328;28;20163;-77
2020/12/19 04:28:15;;;;;;;54.22;21.88;;;;;;;0.61;100.00;95824.94;10492577;28;20086;-77
2020/12/19 04:33:15;;;;;;;51.80;21.23;;;;;;;0.71;100.00;95816.72;10492343;28;20039;-77
2020/12/19 04:38:15;;;;;;;50.40;21.27;;;;;;;0.75;100.00;95819.81;10491636;28;20033;-77
2020/12/19 04:43:18;;;;;;;53.73;21.57;;;;;;;0.88;100.00;95825.28;10490359;28;20658;-77
2020/12/19 04:48:19;;;;;;;61.15;22.80;;;;;;;0.84;100.00;95822.16;10490241;28;20290;-77
2020/12/19 04:53:21;;;;;;;55.95;23.75;;;;;;;0.82;100.00;95815.41;10489669;28;20130;-77
2020/12/19 04:58:21;;;;;;;70.57;23.98;;;;;;;0.85;100.00;95823.81;10490956;28;20051;-77
2020/12/19 05:03:22;;;;;;;58.30;22.80;;;;;;;0.83;100.00;95820.53;10490016;28;20530;-77
2020/12/19 05:08:22;;;;;;;54.25;20.63;;;;;;;0.81;100.00;95834.94;10490310;28;20037;-77
2020/12/19 05:13:22;;;;;;;52.07;21.37;;;;;;;0.86;100.00;95837.88;10491064;28;20033;-77
2020/12/19 05:18:23;;;;;;;58.47;21.83;;;;;;;0.90;100.00;95844.44;10472482;28;20305;-77
2020/12/19 05:23:24;;;;;;;59.38;22.35;;;;;;;0.87;100.00;95846.66;10512807;28;20061;-77
2020/12/19 05:28:25;;;;;;;62.70;23.13;;;;;;;0.83;100.00;95838.25;10524334;28;20056;-77
2020/12/19 05:33:34;;;;;;;55.95;20.50;;;;;;;0.91;100.00;95834.66;10490555;28;20222;-77
2020/12/19 05:38:38;;;;;;;55.80;22.10;;;;;;;0.97;100.00;95842.69;10490305;28;20032;-76
2020/12/19 05:43:51;;;;;;;68.18;24.73;;;;;;;0.84;100.00;95842.53;10489641;28;20037;-77
2020/12/19 05:48:52;;;;;;;64.82;23.67;;;;;;;0.83;100.00;95849.63;10489530;28;20086;-78
2020/12/19 05:53:53;;;;;;;67.32;24.35;;;;;;;0.73;100.00;95849.09;10488712;28;20093;-77
2020/12/19 05:58:54;;;;;;;70.40;24.48;;;;;;;0.81;100.00;95853.47;10487278;28;20517;-73
2020/12/19 06:03:55;;;;;;;63.33;23.45;;;;;;;0.73;100.00;95853.59;10488515;28;20028;-73
2020/12/19 06:08:56;;;;;;;61.45;23.42;;;;;;;0.80;100.00;95867.72;10495939;28;20035;-73
2020/12/19 06:13:59;;;;;;;63.17;23.05;;;;;;;0.80;100.00;95865.88;10529421;28;20528;-74
2020/12/19 06:19:20;;;;;;;75.88;23.50;;;;;;;0.92;100.00;95874.19;10529929;28;20166;-73
2020/12/19 06:24:44;;;;;;;69.70;23.42;;;;;;;0.82;100.00;95871.84;10529638;28;20085;-72
2020/12/19 06:29:45;;;;;;;65.13;21.55;;;;;;;0.96;100.00;95874.63;10529121;28;20028;-72
2020/12/19 06:35:15;;;;;;;63.58;22.60;;;;;;;1.04;100.00;95871.06;10529478;28;20046;-74
2020/12/19 06:40:18;;;;;;;65.30;22.73;;;;;;;1.14;100.00;95884.81;10517585;28;20115;-74
2020/12/19 06:45:24;;;;;;;60.22;23.27;;;;;;;1.23;100.00;95877.59;10522804;28;20418;-74
2020/12/19 06:50:45;;;;;;;60.47;23.08;;;;;;;1.34;100.00;95877.94;10507377;28;20472;-73
2020/12/19 06:55:45;;;;;;;68.85;22.40;;;;;;;1.36;100.00;95878.56;10520067;28;20496;-73
2020/12/19 07:00:46;;;;;;;72.37;24.73;;;;;;;1.45;100.00;95879.28;10502411;28;20024;-74
2020/12/19 07:05:46;;;;;;;64.87;25.77;;;;;;;1.41;100.00;95878.03;10523822;28;20068;-71
2020/12/19 07:10:48;;;;;;;63.47;24.05;;;;;;;1.44;100.00;95882.94;10512246;28;20301;-73
2020/12/19 07:15:50;;;;;;;69.90;22.88;;;;;;;1.66;100.00;95889.09;10483283;28;20049;-74
2020/12/19 07:21:06;;;;;;;73.45;24.75;;;;;;;1.51;100.00;95888.31;10488399;28;20036;-73
2020/12/19 07:26:06;;;;;;;80.75;28.35;;;;;;;1.60;100.00;95889.00;10522684;28;20111;-74
2020/12/19 07:31:07;;;;;;;83.53;27.00;;;;;;;1.55;100.00;95892.22;10529566;28;20028;-72
2020/12/19 07:36:08;;;;;;;66.35;25.30;;;;;;;1.61;100.00;95893.31;10530243;28;20032;-73
2020/12/19 07:41:09;;;;;;;82.75;29.60;;;;;;;1.49;100.00;95891.16;10527545;28;20041;-73
2020/12/19 07:46:09;;;;;;;83.20;28.55;;;;;;;1.56;100.00;95893.84;10532253;28;20051;-73
2020/12/19 07:51:10;;;;;;;86.75;29.42;;;;;;;1.46;100.00;95894.16;10520592;28;20058;-72
2020/12/19 07:56:12;;;;;;;93.15;31.30;;;;;;;1.67;100.00;95896.00;10518876;28;20028;-72
2020/12/19 08:01:13;;;;;;;95.78;30.88;;;;;;;1.77;100.00;95890.38;10508196;28;20507;-73
2020/12/19 08:06:13;;;;;;;90.57;31.27;;;;;;;1.81;100.00;95886.34;10489004;28;20103;-73
2020/12/19 08:11:14;;;;;;;88.20;28.07;;;;;;;1.87;100.00;95892.72;10488327;28;20028;-72
2020/12/19 08:16:14;;;;;;;78.47;27.77;;;;;;;1.77;100.00;95898.34;10489337;28;20510;-72
2020/12/19 08:21:15;;;;;;;87.13;30.38;;;;;;;1.88;100.00;95895.22;10490210;28;20630;-73
2020/12/19 08:26:17;;;;;;;83.55;28.45;;;;;;;2.05;100.00;95898.41;10489812;28;20112;-72
2020/12/19 08:31:19;;;;;;;79.40;28.55;;;;;;;2.12;100.00;95903.78;10491212;28;20208;-73
2020/12/19 08:36:19;;;;;;;77.97;27.45;;;;;;;2.31;100.00;95898.81;10530706;28;20028;-73
2020/12/19 08:41:20;;;;;;;93.00;34.43;;;;;;;2.36;100.00;95899.88;10531192;28;20448;-73
2020/12/19 08:46:20;;;;;;;102.65;33.97;;;;;;;2.29;100.00;95903.50;10531577;28;20335;-73
2020/12/19 08:51:21;;;;;;;104.80;33.30;;;;;;;2.45;100.00;95892.59;10513018;28;20036;-73
2020/12/19 08:56:25;;;;;;;103.27;35.63;;;;;;;2.37;100.00;95884.78;10530614;28;20072;-72
2020/12/19 09:01:30;;;;;;;98.47;33.45;;;;;;;2.52;100.00;95879.38;10529085;28;20281;-72
2020/12/19 09:06:31;;;;;;;88.03;32.15;;;;;;;2.66;100.00;95872.31;10530431;28;20036;-72
2020/12/19 09:11:31;;;;;;;83.50;31.10;;;;;;;2.68;100.00;95865.81;10529942;28;20031;-72
2020/12/19 09:16:44;;;;;;;87.93;31.97;;;;;;;2.74;100.00;95866.88;10511281;28;20297;-72
2020/12/19 09:21:54;;;;;;;85.28;29.45;;;;;;;2.90;100.00;95850.63;10497869;28;20383;-73
2020/12/19 09:26:55;;;;;;;83.93;30.00;;;;;;;3.05;100.00;95847.78;10487815;28;20032;-73
2020/12/19 09:31:55;;;;;;;85.78;29.25;;;;;;;3.05;100.00;95844.34;10476272;28;20035;-73
2020/12/19 09:36:55;;;;;;;76.38;29.77;;;;;;;3.23;100.00;95838.47;10510821;28;20574;-73
2020/12/19 09:41:56;;;;;;;80.47;30.00;;;;;;;3.24;100.00;95840.94;10529208;28;20032;-73
2020/12/19 09:46:56;;;;;;;78.75;31.45;;;;;;;3.48;100.00;95836.09;10529419;28;20098;-73
2020/12/19 09:51:56;;;;;;;80.97;29.93;;;;;;;3.75;100.00;95831.66;10528745;28;20475;-73
2020/12/19 09:56:57;;;;;;;89.60;30.20;;;;;;;4.07;100.00;95831.03;10528580;28;20293;-73
2020/12/19 10:01:57;;;;;;;85.15;32.45;;;;;;;4.17;100.00;95828.81;10528333;28;20293;-74
2020/12/19 10:06:58;;;;;;;92.40;34.93;;;;;;;4.19;100.00;95826.75;10527093;28;20031;-73
2020/12/19 10:11:59;;;;;;;104.45;36.60;;;;;;;4.17;100.00;95819.97;10527214;28;20038;-73
2020/12/19 10:16:59;;;;;;;97.32;35.00;;;;;;;4.10;100.00;95814.66;10527847;28;20056;-73
2020/12/19 10:21:59;;;;;;;107.88;37.60;;;;;;;4.19;100.00;95810.78;10526977;28;20043;-73
2020/12/19 10:27:00;;;;;;;139.55;48.65;;;;;;;4.31;100.00;95802.97;10526831;28;20032;-73
2020/12/19 10:32:12;;;;;;;113.50;40.88;;;;;;;4.14;100.00;95801.78;10527557;28;20051;-74
2020/12/19 10:37:13;;;;;;;120.00;43.53;;;;;;;4.02;100.00;95790.94;10508004;28;20112;-72
2020/12/19 10:42:13;;;;;;;134.02;43.53;;;;;;;3.99;100.00;95797.50;10483695;28;20861;-71
2020/12/19 10:47:13;;;;;;;120.47;40.55;;;;;;;3.76;100.00;95792.56;10485109;28;20036;-72
2020/12/19 10:52:14;;;;;;;124.73;43.17;;;;;;;3.59;100.00;95777.03;10482820;28;20037;-72
2020/12/19 10:57:14;;;;;;;126.35;41.25;;;;;;;3.52;100.00;95781.50;10483685;28;20301;-72
2020/12/19 11:02:15;;;;;;;98.95;36.10;;;;;;;3.66;100.00;95778.88;10490832;28;20052;-71
2020/12/19 11:07:15;;;;;;;119.13;42.70;;;;;;;3.73;100.00;95777.03;10493446;28;20029;-71
2020/12/19 11:12:16;;;;;;;101.27;36.53;;;;;;;3.84;100.00;95764.97;10492971;28;20487;-72
2020/12/19 11:17:16;;;;;;;111.27;37.50;;;;;;;4.02;100.00;95759.00;10491878;28;20468;-72
2020/12/19 11:22:16;;;;;;;103.30;35.53;;;;;;;3.95;100.00;95751.06;10491517;28;20697;-73
2020/12/19 11:27:18;;;;;;;104.90;37.75;;;;;;;4.03;100.00;95753.50;10491689;28;20393;-72
2020/12/19 11:32:18;;;;;;;100.13;34.58;;;;;;;4.16;100.00;95755.31;10516647;28;20038;-72
2020/12/19 11:37:19;;;;;;;86.53;33.83;;;;;;;3.88;100.00;95761.69;10533291;28;20036;-72
2020/12/19 11:42:22;;;;;;;97.25;36.08;;;;;;;3.67;100.00;95756.56;10533407;28;20027;-72
2020/12/19 11:47:23;;;;;;;105.97;36.90;;;;;;;3.74;100.00;95750.25;10532969;28;20036;-71
2020/12/19 11:52:23;;;;;;;98.00;35.30;;;;;;;3.81;100.00;95750.25;10521027;28;20025;-72
2020/12/19 11:57:23;;;;;;;93.60;34.63;;;;;;;3.86;100.00;95737.13;10491548;28;20032;-72
2020/12/19 12:02:24;;;;;;;99.43;36.93;;;;;;;3.95;100.00;95735.09;10489266;28;20039;-71
2020/12/19 12:07:25;;;;;;;106.23;38.27;;;;;;;3.91;100.00;95726.72;10489869;28;20318;-72
2020/12/19 12:12:25;;;;;;;102.40;37.25;;;;;;;3.72;100.00;95724.88;10488973;28;20347;-72
2020/12/19 12:17:26;;;;;;;93.53;35.13;;;;;;;3.87;100.00;95728.13;10489779;28;20093;-72
2020/12/19 12:22:26;;;;;;;108.03;37.70;;;;;;;4.21;100.00;95728.88;10489115;28;20040;-72
2020/12/19 12:27:26;;;;;;;100.35;38.42;;;;;;;4.28;100.00;95713.75;10490133;28;20078;-72
2020/12/19 12:32:27;;;;;;;98.13;37.00;;;;;;;4.61;100.00;95719.97;10500125;28;20563;-72
2020/12/19 12:37:27;;;;;;;102.60;39.03;;;;;;;4.58;100.00;95707.09;10532291;28;20032;-72
2020/12/19 12:42:28;;;;;;;107.45;37.95;;;;;;;4.66;100.00;95704.19;10531554;28;20056;-71
2020/12/19 12:47:28;;;;;;;111.50;40.43;;;;;;;4.83;100.00;95709.00;10530756;28;20028;-72
2020/12/19 12:52:28;;;;;;;99.35;38.28;;;;;;;4.75;100.00;95704.75;10512167;28;20105;-72
2020/12/19 12:57:29;;;;;;;107.05;38.40;;;;;;;4.78;100.00;95702.47;10530213;28;20395;-72
2020/12/19 13:02:29;;;;;;;107.95;40.88;;;;;;;4.62;100.00;95700.31;10529989;28;20727;-72
2020/12/19 13:07:30;;;;;;;91.90;37.20;;;;;;;4.62;100.00;95698.47;10530100;28;20043;-72
2020/12/19 13:12:30;;;;;;;117.57;41.27;;;;;;;4.56;100.00;95699.31;10530395;28;20879;-71
2020/12/19 13:17:31;;;;;;;102.70;40.60;;;;;;;4.47;100.00;95692.59;10528460;28;20533;-71
2020/12/19 13:22:31;;;;;;;103.70;39.10;;;;;;;4.35;100.00;95689.75;10529291;28;20040;-71
2020/12/19 13:27:31;;;;;;;95.03;38.10;;;;;;;4.24;100.00;95696.56;10528415;28;20282;-72
2020/12/19 13:32:32;;;;;;;113.87;40.00;;;;;;;4.15;100.00;95697.00;10527821;28;20115;-72
2020/12/19 13:37:33;;;;;;;106.53;39.00;;;;;;;4.19;100.00;95688.38;10528536;28;20286;-71
2020/12/19 13:42:34;;;;;;;105.68;39.10;;;;;;;4.10;100.00;95697.59;10527501;28;20782;-71
2020/12/19 13:47:36;;;;;;;99.65;38.40;;;;;;;4.07;100.00;95706.00;10528625;28;20040;-72
2020/12/19 13:52:38;;;;;;;103.63;37.25;;;;;;;4.05;100.00;95700.09;10528022;28;20040;-72
2020/12/19 13:57:38;;;;;;;101.78;38.40;;;;;;;4.01;100.00;95699.69;10526866;28;20067;-72
2020/12/19 14:02:41;;;;;;;106.30;37.20;;;;;;;3.93;100.00;95705.22;10527735;28;20127;-72
2020/12/19 14:07:43;;;;;;;113.47;42.42;;;;;;;3.86;100.00;95704.41;10527557;28;20036;-71
2020/12/19 14:12:43;;;;;;;142.30;47.78;;;;;;;3.78;100.00;95700.13;10527604;28;20033;-72
2020/12/19 14:17:44;;;;;;;145.68;53.05;;;;;;;3.69;100.00;95699.53;10527509;28;20052;-72
2020/12/19 14:22:44;;;;;;;159.37;52.60;;;;;;;3.63;100.00;95699.50;10527785;28;20114;-73
2020/12/19 14:27:44;;;;;;;177.38;60.33;;;;;;;3.51;100.00;95702.78;10527837;28;20044;-73
2020/12/19 14:32:45;;;;;;;150.73;57.97;;;;;;;3.47;100.00;95704.22;10515848;28;20028;-72
2020/12/19 14:37:45;;;;;;;162.23;58.77;;;;;;;3.40;100.00;95701.59;10525645;28;20082;-72
2020/12/19 14:42:45;;;;;;;170.13;63.27;;;;;;;3.28;100.00;95708.53;10525983;28;20280;-72
2020/12/19 14:47:46;;;;;;;176.73;63.93;;;;;;;3.25;100.00;95707.09;10526165;28;20302;-72
2020/12/19 14:52:49;;;;;;;196.45;70.65;;;;;;;3.21;100.00;95713.81;10526022;28;20085;-73
2020/12/19 14:57:50;;;;;;;171.98;62.53;;;;;;;3.15;100.00;95713.81;10507810;28;20633;-72
2020/12/19 15:02:50;;;;;;;191.60;63.40;;;;;;;2.99;100.00;95710.50;10525869;28;20039;-72
2020/12/19 15:07:51;;;;;;;170.13;59.97;;;;;;;2.74;100.00;95716.38;10525706;28;20032;-73
2020/12/19 15:12:51;;;;;;;179.63;60.05;;;;;;;2.65;100.00;95709.63;10525861;28;20841;-72
2020/12/19 15:17:51;;;;;;;193.45;61.03;;;;;;;2.64;100.00;95723.09;10510370;28;20053;-72
2020/12/19 15:22:52;;;;;;;195.67;62.73;;;;;;;2.49;100.00;95718.72;10484599;28;20036;-72
2020/12/19 15:27:52;;;;;;;198.55;63.47;;;;;;;2.45;100.00;95730.75;10464997;28;20776;-74
2020/12/19 15:32:53;;;;;;;203.87;62.87;;;;;;;2.36;100.00;95729.31;10497445;28;20035;-72
2020/12/19 15:37:53;;;;;;;190.02;63.70;;;;;;;2.31;100.00;95732.53;10525110;28;20966;-72
2020/12/19 15:42:54;;;;;;;218.40;64.13;;;;;;;2.31;100.00;95742.31;10525852;28;20403;-72
2020/12/19 15:47:54;;;;;;;215.70;65.95;;;;;;;2.30;100.00;95743.31;10530570;28;20465;-71
2020/12/19 15:52:54;;;;;;;236.05;73.35;;;;;;;2.15;100.00;95736.31;10515253;28;20082;-71
2020/12/19 15:57:55;;;;;;;214.80;64.68;;;;;;;2.17;100.00;95746.72;10516709;28;20038;-73
2020/12/19 16:02:55;;;;;;;220.48;67.15;;;;;;;2.24;100.00;95752.88;10490053;28;20131;-72
2020/12/19 16:07:55;;;;;;;209.70;61.20;;;;;;;2.23;100.00;95751.25;10489106;28;20058;-72
2020/12/19 16:12:56;;;;;;;220.33;62.33;;;;;;;2.24;100.00;95752.09;10489612;28;20295;-72
2020/12/19 16:17:57;;;;;;;198.50;64.38;;;;;;;2.33;100.00;95753.53;10490921;28;20041;-71
2020/12/19 16:22:57;;;;;;;217.02;64.07;;;;;;;2.26;100.00;95755.34;10512415;28;20499;-71
2020/12/19 16:28:00;;;;;;;206.53;64.47;;;;;;;2.13;100.00;95764.84;10516490;28;20111;-72
2020/12/19 16:33:04;;;;;;;174.38;55.33;;;;;;;2.19;100.00;95756.13;10522790;28;20295;-72
2020/12/19 16:38:10;;;;;;;205.82;44.65;;;;;;;2.05;100.00;95759.69;10526076;28;20040;-72
2020/12/19 16:43:29;;;;;;;188.82;47.25;;;;;;;1.87;100.00;95757.53;10526055;28;20034;-71
2020/12/19 16:48:29;;;;;;;186.88;52.38;;;;;;;1.83;100.00;95756.31;10508566;28;20120;-71
2020/12/19 16:53:30;;;;;;;195.13;46.40;;;;;;;1.93;100.00;95769.22;10525365;28;20462;-71
2020/12/19 16:58:30;;;;;;;182.18;48.97;;;;;;;1.93;100.00;95763.94;10505443;28;20058;-71
2020/12/19 17:03:31;;;;;;;153.30;39.70;;;;;;;1.96;100.00;95766.19;10524737;28;20027;-72
2020/12/19 17:08:31;;;;;;;151.07;43.30;;;;;;;1.99;100.00;95768.44;10518406;28;20299;-72
2020/12/19 17:13:31;;;;;;;154.23;39.88;;;;;;;2.11;100.00;95777.50;10522106;28;20036;-72
2020/12/19 17:18:32;;;;;;;186.87;42.33;;;;;;;2.00;100.00;95780.69;10504783;28;20114;-72
2020/12/19 17:23:32;;;;;;;166.97;37.50;;;;;;;1.93;100.00;95785.94;10525690;28;20278;-73
2020/12/19 17:28:33;;;;;;;122.40;34.53;;;;;;;1.94;100.00;95792.88;10521326;28;20784;-73
2020/12/19 17:33:33;;;;;;;102.70;35.10;;;;;;;1.96;100.00;95795.34;10524366;28;20811;-71
2020/12/19 17:38:33;;;;;;;92.33;32.73;;;;;;;2.03;100.00;95791.72;10523504;28;20312;-72
2020/12/19 17:43:34;;;;;;;110.72;35.33;;;;;;;2.11;100.00;95795.22;10514155;28;20298;-72
2020/12/19 17:48:36;;;;;;;97.60;31.67;;;;;;;2.20;100.00;95794.88;10499211;28;20040;-72
2020/12/19 17:53:37;;;;;;;87.32;30.42;;;;;;;2.12;100.00;95792.41;10473023;28;20426;-73
2020/12/19 17:58:38;;;;;;;78.95;31.65;;;;;;;2.30;100.00;95785.78;10486238;28;20415;-73
2020/12/19 18:03:38;;;;;;;76.80;28.60;;;;;;;2.36;100.00;95793.78;10503791;28;20043;-72
2020/12/19 18:08:41;;;;;;;53.40;19.90;;;;;;;2.29;100.00;95786.78;10518127;28;20068;-72
2020/12/19 18:13:41;;;;;;;57.38;24.55;;;;;;;2.30;100.00;95791.91;10502043;28;20531;-72
2020/12/19 18:18:43;;;;;;;67.20;25.95;;;;;;;2.33;100.00;95791.53;10492202;28;20044;-72
2020/12/19 18:23:43;;;;;;;58.90;24.90;;;;;;;2.41;100.00;95790.53;10526984;28;20541;-72
2020/12/19 18:28:43;;;;;;;52.50;23.87;;;;;;;2.35;100.00;95791.31;10502165;28;20028;-72
2020/12/19 18:33:44;;;;;;;64.25;25.55;;;;;;;2.28;100.00;95791.28;10531279;28;20297;-72
2020/12/19 18:38:45;;;;;;;69.18;27.48;;;;;;;2.32;100.00;95794.38;10536232;28;20110;-72
2020/12/19 18:43:46;;;;;;;63.42;26.98;;;;;;;2.33;100.00;95793.34;10490625;28;20040;-72
2020/12/19 18:48:46;;;;;;;63.22;26.13;;;;;;;2.38;100.00;95794.38;10510773;28;20453;-72
2020/12/19 18:53:47;;;;;;;76.47;27.80;;;;;;;2.42;100.00;95796.66;10522139;28;20036;-72
2020/12/19 18:58:48;;;;;;;75.13;28.67;;;;;;;2.52;100.00;95795.28;10519326;28;20047;-72
2020/12/19 19:03:48;;;;;;;76.03;30.08;;;;;;;2.14;100.00;95793.03;10494985;28;20035;-72
2020/12/19 19:08:49;;;;;;;100.07;34.53;;;;;;;2.13;100.00;95801.16;10520612;28;20046;-72
2020/12/19 19:13:52;;;;;;;93.30;33.80;;;;;;;2.03;100.00;95796.22;10522068;28;20406;-72
2020/12/19 19:18:54;;;;;;;106.53;36.45;;;;;;;1.99;100.00;95790.47;10519862;28;20501;-71
2020/12/19 19:23:54;;;;;;;80.00;29.77;;;;;;;1.86;100.00;95796.50;10529908;28;20454;-71
2020/12/19 19:28:55;;;;;;;90.30;32.37;;;;;;;1.65;100.00;95800.00;10527837;28;20030;-72
2020/12/19 19:33:55;;;;;;;80.22;29.20;;;;;;;1.70;100.00;95802.91;10529837;28;20308;-71
2020/12/19 19:38:55;;;;;;;94.80;32.00;;;;;;;1.73;100.00;95803.50;10526376;28;20024;-71
2020/12/19 19:43:56;;;;;;;63.87;26.93;;;;;;;1.77;100.00;95799.47;10530336;28;20046;-71
2020/12/19 19:48:56;;;;;;;76.50;27.40;;;;;;;1.79;100.00;95802.75;10498283;28;20301;-71
2020/12/19 19:53:57;;;;;;;76.95;28.50;;;;;;;1.74;100.00;95794.56;10515529;28;20039;-71
2020/12/19 19:58:58;;;;;;;71.22;25.90;;;;;;;1.75;100.00;95802.31;10503490;28;20417;-72
2020/12/19 20:03:58;;;;;;;66.18;27.88;;;;;;;1.58;100.00;95792.97;10506218;28;20037;-71
2020/12/19 20:08:59;;;;;;;80.73;28.87;;;;;;;1.51;100.00;95793.75;10490398;28;20092;-71
2020/12/19 20:13:59;;;;;;;83.30;32.57;;;;;;;1.40;100.00;95796.09;10493662;28;20298;-72
2020/12/19 20:19:00;;;;;;;80.20;32.47;;;;;;;1.54;100.00;95798.66;10510064;28;20302;-72
2020/12/19 20:24:01;;;;;;;78.40;32.08;;;;;;;1.60;100.00;95809.53;10528539;28;20481;-72
2020/12/19 20:29:03;;;;;;;84.18;32.40;;;;;;;1.62;100.00;95807.50;10507714;28;20055;-72
2020/12/19 20:34:04;;;;;;;83.75;34.13;;;;;;;1.64;100.00;95808.13;10518057;28;20036;-72
2020/12/19 20:39:05;;;;;;;84.50;31.08;;;;;;;1.62;100.00;95804.84;10497612;28;20029;-72
2020/12/19 20:44:05;;;;;;;74.00;28.13;;;;;;;1.67;100.00;95807.75;10489214;28;20380;-72
2020/12/19 20:49:06;;;;;;;72.43;30.90;;;;;;;1.70;100.00;95805.56;10488989;28;20028;-71
2020/12/19 20:54:06;;;;;;;62.30;26.27;;;;;;;1.87;100.00;95803.44;10471351;28;20040;-71
2020/12/19 20:59:07;;;;;;;33.40;17.23;;;;;;;2.08;100.00;95798.28;10488868;28;20032;-71
2020/12/19 21:04:07;;;;;;;38.80;17.17;;;;;;;2.16;100.00;95796.31;10487886;28;20299;-71
2020/12/19 21:09:08;;;;;;;47.83;20.00;;;;;;;2.24;100.00;95791.88;10515636;28;20035;-72
2020/12/19 21:14:08;;;;;;;38.55;17.98;;;;;;;2.29;100.00;95787.63;10516502;28;20174;-71
2020/12/19 21:19:10;;;;;;;47.25;22.05;;;;;;;2.35;100.00;95791.31;10505343;28;20308;-72
2020/12/19 21:24:11;;;;;;;36.70;16.85;;;;;;;2.40;100.00;95794.22;10487948;28;20097;-73
2020/12/19 21:29:11;;;;;;;29.55;13.25;;;;;;;2.45;100.00;95781.16;10490767;28;20040;-72
2020/12/19 21:34:11;;;;;;;38.10;16.88;;;;;;;2.53;100.00;95788.16;10512243;28;20068;-72
2020/12/19 21:39:13;;;;;;;36.30;16.15;;;;;;;2.56;100.00;95785.91;10528601;28;20036;-73
2020/12/19 21:44:15;;;;;;;37.53;16.05;;;;;;;2.61;100.00;95788.00;10510200;28;20116;-73
2020/12/19 21:49:15;;;;;;;35.58;15.98;;;;;;;2.55;100.00;95786.09;10512634;28;20903;-73
2020/12/19 21:54:16;;;;;;;28.35;13.52;;;;;;;2.46;100.00;95780.16;10488143;28;20028;-73
2020/12/19 21:59:16;;;;;;;28.23;14.25;;;;;;;2.36;100.00;95787.66;10494569;28;20047;-72
2020/12/19 22:04:17;;;;;;;24.42;12.02;;;;;;;2.41;100.00;95779.09;10485776;28;20703;-72
2020/12/19 22:09:17;;;;;;;25.88;11.88;;;;;;;2.46;100.00;95790.75;10486223;28;20063;-72
2020/12/19 22:14:18;;;;;;;26.73;12.88;;;;;;;2.35;100.00;95786.00;10486231;28;20032;-72
2020/12/19 22:19:18;;;;;;;18.05;9.05;;;;;;;2.26;100.00;95797.78;10485568;28;20455;-72
2020/12/19 22:24:18;;;;;;;24.77;11.75;;;;;;;2.14;100.00;95787.72;10504984;28;20035;-72
2020/12/19 22:29:19;;;;;;;25.30;12.97;;;;;;;2.17;100.00;95792.63;10500609;28;20028;-72
2020/12/19 22:34:19;;;;;;;29.60;13.43;;;;;;;2.28;100.00;95780.66;10509613;28;20333;-72
2020/12/19 22:39:20;;;;;;;25.75;10.82;;;;;;;2.35;100.00;95786.00;10484711;28;20036;-72